Terminal Aerodrome Forecast
Issued by NWS Boise, ID

Home | Current Version | Previous Version | Text Only | Print | Product List | Glossary On
Versions: 1 2 3 4 5 6 7 8 9 10 11 12 13 14 15 16
000
FTUS45 KBOI 191122
TAFBOI
TAF
KBOI 191122Z 1912/2012 32010KT P6SM -SHRA SCT050 BKN080
     FM191700 31015G25KT P6SM VCSH BKN060
     FM192200 32008KT P6SM VCSH BKN050
     FM200200 VRB06KT P6SM BKN100
     FM200900 13010KT P6SM -SHRA OVC070=

USA.gov is the U.S. government's official web portal to all federal, state and local government web resources and services.